DLH8RM EDDV-EDDF
Flight info
| Callsign | DLH8RM |
|---|---|
| Flight time | 0h 31m |
| Altitude | 18000 |
| Route | NORTA1Y NORTA P12 TOLTA/N0385F170 T154 ROBAR T152 KERAX KERAX5A |
| Aircraft | A319/M-SADE2E3FGIJ1LORWXYZHB1/LB1 |
Departure
| Time | 2026-05-07 09:23 |
|---|---|
| Airport | Hannover Airport (EDDV) |
Arrival
| Time | 2026-05-07 09:55 |
|---|---|
| Airport | Frankfurt Main Airport (EDDF) |
| Time | Latitude | Longitude | Altitude | Speed | Heading |
|---|---|---|---|---|---|
| 2026-05-07 08:49 | 52.45839 | 9.69394 | 179 ft | 0 kts | 30° |
| 2026-05-07 09:12 | 52.45839 | 9.69393 | 179 ft | 2 kts | 30° |
| 2026-05-07 09:12 | 52.45817 | 9.69373 | 179 ft | 4 kts | 23° |
| 2026-05-07 09:12 | 52.45791 | 9.69360 | 179 ft | 4 kts | 8° |
| 2026-05-07 09:13 | 52.45766 | 9.69361 | 179 ft | 4 kts | 326° |
| 2026-05-07 09:13 | 52.45758 | 9.69377 | 179 ft | 0 kts | 272° |
| 2026-05-07 09:15 | 52.45758 | 9.69376 | 179 ft | 1 kts | 272° |
| 2026-05-07 09:16 | 52.45758 | 9.69354 | 178 ft | 3 kts | 272° |
| 2026-05-07 09:16 | 52.45760 | 9.69301 | 178 ft | 7 kts | 272° |
| 2026-05-07 09:16 | 52.45762 | 9.69198 | 178 ft | 11 kts | 274° |
| 2026-05-07 09:16 | 52.45799 | 9.69069 | 178 ft | 15 kts | 313° |
| 2026-05-07 09:17 | 52.45878 | 9.68977 | 179 ft | 12 kts | 325° |
| 2026-05-07 09:17 | 52.45956 | 9.68879 | 179 ft | 16 kts | 322° |
| 2026-05-07 09:17 | 52.46056 | 9.68751 | 179 ft | 20 kts | 322° |
| 2026-05-07 09:17 | 52.46176 | 9.68598 | 179 ft | 24 kts | 322° |
| 2026-05-07 09:18 | 52.46316 | 9.68419 | 179 ft | 27 kts | 322° |
| 2026-05-07 09:18 | 52.46476 | 9.68217 | 178 ft | 30 kts | 322° |
| 2026-05-07 09:18 | 52.46526 | 9.67970 | 178 ft | 17 kts | 272° |
| 2026-05-07 09:18 | 52.46529 | 9.67873 | 178 ft | 8 kts | 272° |
| 2026-05-07 09:19 | 52.46531 | 9.67780 | 178 ft | 9 kts | 272° |
| 2026-05-07 09:19 | 52.46534 | 9.67676 | 178 ft | 10 kts | 272° |
| 2026-05-07 09:19 | 52.46537 | 9.67561 | 178 ft | 11 kts | 272° |
| 2026-05-07 09:19 | 52.46540 | 9.67436 | 178 ft | 11 kts | 272° |
| 2026-05-07 09:20 | 52.46544 | 9.67301 | 178 ft | 12 kts | 272° |
| 2026-05-07 09:20 | 52.46548 | 9.67157 | 178 ft | 13 kts | 272° |
| 2026-05-07 09:20 | 52.46552 | 9.67002 | 178 ft | 14 kts | 272° |
| 2026-05-07 09:20 | 52.46556 | 9.66838 | 178 ft | 15 kts | 272° |
| 2026-05-07 09:21 | 52.46560 | 9.66664 | 178 ft | 16 kts | 272° |
| 2026-05-07 09:21 | 52.46565 | 9.66481 | 178 ft | 16 kts | 272° |
| 2026-05-07 09:21 | 52.46570 | 9.66291 | 178 ft | 17 kts | 272° |
| 2026-05-07 09:21 | 52.46581 | 9.66117 | 178 ft | 14 kts | 288° |
| 2026-05-07 09:22 | 52.46653 | 9.66014 | 178 ft | 14 kts | 348° |
| 2026-05-07 09:22 | 52.46745 | 9.66015 | 176 ft | 14 kts | 17° |
| 2026-05-07 09:22 | 52.46802 | 9.66140 | 176 ft | 12 kts | 96° |
| 2026-05-07 09:22 | 52.46797 | 9.66277 | 177 ft | 13 kts | 93° |
| 2026-05-07 09:23 | 52.46788 | 9.66613 | 176 ft | 63 kts | 92° |
| 2026-05-07 09:23 | 52.46757 | 9.67755 | 176 ft | 135 kts | 92° |
| 2026-05-07 09:23 | 52.46731 | 9.69489 | 581 ft | 154 kts | 89° |
| 2026-05-07 09:23 | 52.46689 | 9.71248 | 1359 ft | 156 kts | 91° |
| 2026-05-07 09:24 | 52.46638 | 9.73152 | 1842 ft | 179 kts | 92° |
| 2026-05-07 09:24 | 52.46546 | 9.75328 | 2274 ft | 205 kts | 92° |
| 2026-05-07 09:24 | 52.46464 | 9.77705 | 3222 ft | 205 kts | 91° |
| 2026-05-07 09:24 | 52.46387 | 9.80043 | 4281 ft | 208 kts | 91° |
| 2026-05-07 09:25 | 52.46314 | 9.82424 | 5269 ft | 211 kts | 90° |
| 2026-05-07 09:25 | 52.46236 | 9.84861 | 6203 ft | 217 kts | 90° |
| 2026-05-07 09:25 | 52.46162 | 9.87348 | 7087 ft | 221 kts | 92° |
| 2026-05-07 09:25 | 52.45688 | 9.89775 | 7915 ft | 233 kts | 125° |
| 2026-05-07 09:26 | 52.44387 | 9.91412 | 8764 ft | 244 kts | 154° |
| 2026-05-07 09:26 | 52.42721 | 9.92077 | 9691 ft | 250 kts | 174° |
| 2026-05-07 09:26 | 52.40978 | 9.92210 | 10582 ft | 255 kts | 179° |
| 2026-05-07 09:26 | 52.39122 | 9.92093 | 11010 ft | 279 kts | 185° |
| 2026-05-07 09:27 | 52.37102 | 9.91715 | 11405 ft | 304 kts | 188° |
| 2026-05-07 09:27 | 52.34959 | 9.91181 | 11749 ft | 328 kts | 189° |
| 2026-05-07 09:27 | 52.30157 | 9.89834 | 12515 ft | 366 kts | 190° |
| 2026-05-07 09:28 | 52.27621 | 9.89124 | 13236 ft | 372 kts | 190° |
| 2026-05-07 09:28 | 52.25049 | 9.88416 | 13968 ft | 378 kts | 189° |
| 2026-05-07 09:28 | 52.22436 | 9.87779 | 14682 ft | 381 kts | 188° |
| 2026-05-07 09:28 | 52.19791 | 9.87238 | 15405 ft | 384 kts | 187° |
| 2026-05-07 09:29 | 52.17125 | 9.86752 | 16157 ft | 387 kts | 186° |
| 2026-05-07 09:29 | 52.14435 | 9.86277 | 16905 ft | 391 kts | 186° |
| 2026-05-07 09:29 | 52.11721 | 9.85789 | 17650 ft | 394 kts | 187° |
| 2026-05-07 09:29 | 52.08992 | 9.85283 | 17942 ft | 394 kts | 187° |
| 2026-05-07 09:30 | 52.06244 | 9.84758 | 18014 ft | 407 kts | 187° |
| 2026-05-07 09:30 | 52.03365 | 9.84194 | 18013 ft | 425 kts | 187° |
| 2026-05-07 09:30 | 52.00406 | 9.83608 | 18013 ft | 430 kts | 188° |
| 2026-05-07 09:30 | 51.97433 | 9.83022 | 18013 ft | 431 kts | 187° |
| 2026-05-07 09:31 | 51.94495 | 9.82451 | 18012 ft | 431 kts | 187° |
| 2026-05-07 09:31 | 51.91526 | 9.81788 | 18007 ft | 431 kts | 192° |
| 2026-05-07 09:31 | 51.88660 | 9.80462 | 17839 ft | 425 kts | 201° |
| 2026-05-07 09:31 | 51.86024 | 9.78376 | 17668 ft | 419 kts | 212° |
| 2026-05-07 09:32 | 51.83676 | 9.75624 | 17567 ft | 418 kts | 221° |
| 2026-05-07 09:32 | 51.81593 | 9.72306 | 17452 ft | 422 kts | 226° |
| 2026-05-07 09:32 | 51.79540 | 9.68898 | 17334 ft | 423 kts | 226° |
| 2026-05-07 09:32 | 51.77478 | 9.65502 | 17238 ft | 424 kts | 226° |
| 2026-05-07 09:33 | 51.75409 | 9.62118 | 17084 ft | 423 kts | 226° |
| 2026-05-07 09:33 | 51.73343 | 9.58753 | 16977 ft | 421 kts | 226° |
| 2026-05-07 09:33 | 51.71274 | 9.55391 | 17008 ft | 423 kts | 226° |
| 2026-05-07 09:33 | 51.69150 | 9.52119 | 17003 ft | 423 kts | 220° |
| 2026-05-07 09:34 | 51.66754 | 9.49366 | 17002 ft | 423 kts | 212° |
| 2026-05-07 09:34 | 51.64215 | 9.46972 | 17003 ft | 423 kts | 211° |
| 2026-05-07 09:34 | 51.61674 | 9.44576 | 17002 ft | 423 kts | 211° |
| 2026-05-07 09:34 | 51.59141 | 9.42178 | 17002 ft | 422 kts | 211° |
| 2026-05-07 09:35 | 51.56608 | 9.39776 | 17002 ft | 422 kts | 211° |
| 2026-05-07 09:35 | 51.54076 | 9.37373 | 17002 ft | 423 kts | 211° |
| 2026-05-07 09:35 | 51.51547 | 9.34974 | 16998 ft | 422 kts | 211° |
| 2026-05-07 09:35 | 51.49018 | 9.32583 | 16997 ft | 422 kts | 211° |
| 2026-05-07 09:36 | 51.46475 | 9.30228 | 16995 ft | 423 kts | 208° |
| 2026-05-07 09:36 | 51.43764 | 9.28385 | 16998 ft | 423 kts | 199° |
| 2026-05-07 09:36 | 51.40903 | 9.27273 | 16999 ft | 423 kts | 189° |
| 2026-05-07 09:36 | 51.38008 | 9.26917 | 16999 ft | 423 kts | 180° |
| 2026-05-07 09:37 | 51.36017 | 9.27009 | 17001 ft | 424 kts | 178° |
| 2026-05-07 09:37 | 51.32119 | 9.27207 | 17000 ft | 424 kts | 179° |
| 2026-05-07 09:37 | 51.29166 | 9.27348 | 17001 ft | 424 kts | 179° |
| 2026-05-07 09:37 | 51.26219 | 9.27485 | 17003 ft | 424 kts | 179° |
| 2026-05-07 09:38 | 51.23270 | 9.27621 | 16995 ft | 423 kts | 179° |
| 2026-05-07 09:38 | 51.21328 | 9.27709 | 17002 ft | 423 kts | 179° |
| 2026-05-07 09:38 | 51.17375 | 9.27881 | 17006 ft | 425 kts | 179° |
| 2026-05-07 09:38 | 51.15414 | 9.27965 | 16997 ft | 426 kts | 179° |
| 2026-05-07 09:39 | 51.12450 | 9.28094 | 17001 ft | 427 kts | 179° |
| 2026-05-07 09:39 | 51.09484 | 9.28200 | 17002 ft | 426 kts | 180° |
| 2026-05-07 09:39 | 51.06521 | 9.28196 | 17004 ft | 425 kts | 181° |
| 2026-05-07 09:39 | 51.03563 | 9.28108 | 17001 ft | 425 kts | 182° |
| 2026-05-07 09:40 | 51.00603 | 9.27985 | 17001 ft | 425 kts | 182° |
| 2026-05-07 09:40 | 50.97640 | 9.27877 | 17000 ft | 426 kts | 180° |
| 2026-05-07 09:40 | 50.94688 | 9.28263 | 16998 ft | 426 kts | 172° |
| 2026-05-07 09:40 | 50.91737 | 9.28641 | 16995 ft | 426 kts | 182° |
| 2026-05-07 09:41 | 50.88793 | 9.28383 | 16805 ft | 417 kts | 184° |
| 2026-05-07 09:41 | 50.85925 | 9.28110 | 16331 ft | 409 kts | 184° |
| 2026-05-07 09:41 | 50.83102 | 9.27844 | 15860 ft | 403 kts | 184° |
| 2026-05-07 09:41 | 50.80323 | 9.27591 | 15410 ft | 397 kts | 184° |
| 2026-05-07 09:42 | 50.77588 | 9.27339 | 14959 ft | 391 kts | 184° |
| 2026-05-07 09:42 | 50.74880 | 9.27091 | 14515 ft | 388 kts | 184° |
| 2026-05-07 09:42 | 50.72195 | 9.26846 | 14108 ft | 386 kts | 184° |
| 2026-05-07 09:42 | 50.69532 | 9.26606 | 13963 ft | 376 kts | 184° |
| 2026-05-07 09:43 | 50.66970 | 9.26378 | 13985 ft | 365 kts | 184° |
| 2026-05-07 09:43 | 50.64479 | 9.25746 | 13895 ft | 359 kts | 199° |
| 2026-05-07 09:43 | 50.62197 | 9.24357 | 13405 ft | 355 kts | 204° |
| 2026-05-07 09:43 | 50.59896 | 9.22844 | 12993 ft | 350 kts | 204° |
| 2026-05-07 09:44 | 50.57683 | 9.21383 | 12444 ft | 345 kts | 204° |
| 2026-05-07 09:44 | 50.55429 | 9.19888 | 11480 ft | 357 kts | 204° |
| 2026-05-07 09:44 | 50.53141 | 9.18365 | 11014 ft | 352 kts | 204° |
| 2026-05-07 09:44 | 50.50942 | 9.16896 | 10618 ft | 338 kts | 204° |
| 2026-05-07 09:45 | 50.48811 | 9.15480 | 10074 ft | 327 kts | 204° |
| 2026-05-07 09:45 | 50.46742 | 9.14105 | 9505 ft | 319 kts | 204° |
| 2026-05-07 09:45 | 50.44732 | 9.12769 | 9009 ft | 308 kts | 204° |
| 2026-05-07 09:45 | 50.42783 | 9.11474 | 8439 ft | 301 kts | 204° |
| 2026-05-07 09:46 | 50.40914 | 9.10232 | 8151 ft | 292 kts | 204° |
| 2026-05-07 09:46 | 50.39057 | 9.08998 | 7869 ft | 288 kts | 204° |
| 2026-05-07 09:46 | 50.37213 | 9.07770 | 7581 ft | 286 kts | 204° |
| 2026-05-07 09:46 | 50.35382 | 9.06559 | 7308 ft | 285 kts | 204° |
| 2026-05-07 09:47 | 50.33564 | 9.05358 | 7030 ft | 283 kts | 204° |
| 2026-05-07 09:47 | 50.31770 | 9.04168 | 6776 ft | 277 kts | 204° |
| 2026-05-07 09:47 | 50.29977 | 9.02974 | 6529 ft | 284 kts | 204° |
| 2026-05-07 09:47 | 50.28126 | 9.01756 | 6263 ft | 284 kts | 204° |
| 2026-05-07 09:48 | 50.26327 | 9.00593 | 6011 ft | 283 kts | 204° |
| 2026-05-07 09:48 | 50.24509 | 8.99415 | 5759 ft | 283 kts | 204° |
| 2026-05-07 09:48 | 50.22695 | 8.98237 | 5495 ft | 282 kts | 204° |
| 2026-05-07 09:48 | 50.20893 | 8.97063 | 5239 ft | 280 kts | 204° |
| 2026-05-07 09:49 | 50.19124 | 8.95913 | 4988 ft | 270 kts | 204° |
| 2026-05-07 09:49 | 50.17414 | 8.94785 | 4726 ft | 264 kts | 204° |
| 2026-05-07 09:49 | 50.15827 | 8.93425 | 4459 ft | 259 kts | 220° |
| 2026-05-07 09:49 | 50.14473 | 8.91605 | 4207 ft | 254 kts | 224° |
| 2026-05-07 09:50 | 50.13175 | 8.89796 | 4029 ft | 244 kts | 224° |
| 2026-05-07 09:50 | 50.11944 | 8.88066 | 3992 ft | 232 kts | 224° |
| 2026-05-07 09:50 | 50.10796 | 8.86417 | 3991 ft | 218 kts | 230° |
| 2026-05-07 09:50 | 50.10092 | 8.84438 | 3858 ft | 203 kts | 252° |
| 2026-05-07 09:51 | 50.09623 | 8.82422 | 3612 ft | 194 kts | 254° |
| 2026-05-07 09:51 | 50.09167 | 8.80460 | 3382 ft | 190 kts | 253° |
| 2026-05-07 09:51 | 50.08716 | 8.78537 | 3112 ft | 188 kts | 252° |
| 2026-05-07 09:51 | 50.08268 | 8.76639 | 2848 ft | 185 kts | 252° |
| 2026-05-07 09:52 | 50.07823 | 8.74755 | 2584 ft | 185 kts | 252° |
| 2026-05-07 09:52 | 50.07384 | 8.72897 | 2350 ft | 184 kts | 252° |
| 2026-05-07 09:52 | 50.06945 | 8.71043 | 2099 ft | 178 kts | 252° |
| 2026-05-07 09:52 | 50.06560 | 8.69426 | 1878 ft | 157 kts | 253° |
| 2026-05-07 09:53 | 50.06206 | 8.67934 | 1668 ft | 141 kts | 253° |
| 2026-05-07 09:53 | 50.05882 | 8.66567 | 1481 ft | 133 kts | 253° |
| 2026-05-07 09:53 | 50.05702 | 8.65193 | 1236 ft | 128 kts | 265° |
| 2026-05-07 09:53 | 50.05555 | 8.63844 | 1070 ft | 126 kts | 259° |
| 2026-05-07 09:54 | 50.05335 | 8.62532 | 914 ft | 126 kts | 257° |
| 2026-05-07 09:54 | 50.05091 | 8.61204 | 783 ft | 129 kts | 256° |
| 2026-05-07 09:54 | 50.04836 | 8.60082 | 593 ft | 124 kts | 252° |
| 2026-05-07 09:54 | 50.04601 | 8.59127 | 468 ft | 120 kts | 252° |
| 2026-05-07 09:55 | 50.04367 | 8.58105 | 376 ft | 114 kts | 254° |
| 2026-05-07 09:55 | 50.04156 | 8.57201 | 365 ft | 75 kts | 247° |
| 2026-05-07 09:55 | 50.04030 | 8.56677 | 358 ft | 41 kts | 250° |
| 2026-05-07 09:55 | 50.04000 | 8.56309 | 354 ft | 32 kts | 279° |
| 2026-05-07 09:56 | 50.04013 | 8.56199 | 358 ft | 4 kts | 280° |
| 2026-05-07 09:56 | 50.04023 | 8.56147 | 350 ft | 7 kts | 294° |
| 2026-05-07 09:56 | 50.04070 | 8.56120 | 351 ft | 9 kts | 5° |
| 2026-05-07 09:56 | 50.04114 | 8.56188 | 353 ft | 11 kts | 71° |
| 2026-05-07 09:57 | 50.04160 | 8.56285 | 353 ft | 12 kts | 1° |
| 2026-05-07 09:57 | 50.04250 | 8.56235 | 359 ft | 15 kts | 338° |
| 2026-05-07 09:57 | 50.04291 | 8.56145 | 355 ft | 10 kts | 264° |
| 2026-05-07 09:57 | 50.04332 | 8.56057 | 359 ft | 12 kts | 342° |
| 2026-05-07 09:58 | 50.04423 | 8.56039 | 356 ft | 15 kts | 28° |
| 2026-05-07 09:58 | 50.04470 | 8.56193 | 356 ft | 17 kts | 71° |
| 2026-05-07 09:58 | 50.04512 | 8.56364 | 356 ft | 17 kts | 70° |
| 2026-05-07 09:58 | 50.04584 | 8.56466 | 357 ft | 7 kts | 20° |
| 2026-05-07 09:59 | 50.04609 | 8.56509 | 361 ft | 6 kts | 93° |
| 2026-05-07 09:59 | 50.04593 | 8.56577 | 361 ft | 7 kts | 114° |
| 2026-05-07 09:59 | 50.04582 | 8.56616 | 359 ft | 1 kts | 115° |
| 2026-05-07 09:59 | 50.04580 | 8.56623 | 358 ft | 0 kts | 115° |